Time;durP1;ratioP1;P1;durP2;ratioP2;P2;SDS_P1;SDS_P2;PMS_P1;PMS_P2;Temp;Humidity;BMP_temperature;BMP_pressure;BME280_temperature;BME280_humidity;BME280_pressure;Samples;Min_cycle;Max_cycle;Signal;HPM_P1;HPM_P2
2021/07/30 09:13:44;;;;;;;;;;;21.50;99.90;;;;;;1449394;23;20203;-93
2021/07/30 09:16:12;;;;;;;;;;;21.50;99.90;;;;;;4959742;28;19924;-92
2021/07/30 09:18:42;;;;;;;;;;;21.60;99.90;;;;;;4965716;28;19934;-93
2021/07/30 09:21:31;;;;;;;;;;;21.70;99.90;;;;;;4969424;28;19902;-92
2021/07/30 09:24:10;;;;;;;;;;;21.90;99.90;;;;;;4971558;28;19942;-92
2021/07/30 09:26:50;;;;;;;;;;;22.00;99.90;;;;;;4974445;28;19926;-92
2021/07/30 10:26:29;;;;;;;;;;;23.10;99.90;;;;;;4938636;28;19930;-77
2021/07/30 10:28:58;;;;;;;;;;;23.30;99.90;;;;;;4944338;28;19919;-77
2021/07/30 10:31:43;;;;;;;;;;;23.40;99.90;;;;;;4939403;28;20016;-76
2021/07/30 10:34:09;;;;;;;;;;;23.40;99.90;;;;;;4938486;28;19926;-75
2021/07/30 10:36:37;;;;;;;;;;;23.50;99.90;;;;;;4940590;28;19973;-77
2021/07/30 10:39:11;;;;;;;;;;;23.40;99.90;;;;;;4941139;28;20446;-81
2021/07/30 10:41:41;;;;;;;;;;;23.40;99.90;;;;;;4949704;28;19922;-80
2021/07/30 10:44:07;;;;;;;;;;;23.50;99.90;;;;;;4931469;28;20370;-79
2021/07/30 10:46:32;;;;;;;;;;;23.50;99.90;;;;;;4933705;28;19919;-80
2021/07/30 10:49:18;;;;;;;;;;;23.60;99.90;;;;;;4939649;28;19981;-79
2021/07/30 10:51:43;;;;;;;;;;;23.80;99.90;;;;;;4933080;28;19910;-79
2021/07/30 10:54:10;;;;;;;;;;;23.90;99.90;;;;;;4926918;28;20774;-79
2021/07/30 10:56:35;;;;;;;;;;;23.90;99.90;;;;;;4931095;28;19914;-81
2021/07/30 10:59:04;;;;;;;;;;;24.00;99.90;;;;;;4931676;28;20598;-80
2021/07/30 11:01:29;;;;;;;;;;;24.00;99.90;;;;;;4925411;28;21602;-79
2021/07/30 11:04:04;;;;;;;;;;;23.90;99.90;;;;;;4926855;28;20016;-80
2021/07/30 11:06:30;;;;;;;;;;;24.00;99.90;;;;;;4932033;28;19911;-76
2021/07/30 11:08:59;;;;;;;;;;;24.10;99.90;;;;;;4937394;28;20724;-75
2021/07/30 11:12:03;;;;;;;;;;;24.20;99.90;;;;;;4939452;28;20275;-77
2021/07/30 11:14:29;;;;;;;;;;;24.40;99.90;;;;;;4919922;29;20425;-77
2021/07/30 11:16:58;;;;;;;;;;;24.40;99.90;;;;;;4919819;29;19919;-77
2021/07/30 11:19:33;;;;;;;;;;;24.50;99.90;;;;;;4904696;29;20395;-76
2021/07/30 11:22:00;;;;;;;;;;;24.60;99.90;;;;;;4919966;29;19925;-76
2021/07/30 11:24:26;;;;;;;;;;;24.90;99.90;;;;;;4910761;29;20773;-77
2021/07/30 11:26:52;;;;;;;;;;;24.60;99.90;;;;;;4919109;29;20650;-77
2021/07/30 11:29:18;;;;;;;;;;;24.60;99.90;;;;;;4914325;29;20510;-77
2021/07/30 11:31:54;;;;;;;;;;;24.60;99.90;;;;;;4916556;29;19911;-77
2021/07/30 11:34:20;;;;;;;;;;;24.60;99.90;;;;;;4913847;29;20009;-77
2021/07/30 11:36:46;;;;;;;;;;;24.60;99.90;;;;;;4917162;29;20193;-77
2021/07/30 11:39:11;;;;;;;;;;;24.60;99.90;;;;;;4915186;29;20599;-78
2021/07/30 11:41:45;;;;;;;;;;;24.60;99.90;;;;;;4903072;29;20379;-77
2021/07/30 11:44:11;;;;;;;;;;;24.50;99.90;;;;;;4917391;29;19977;-78
2021/07/30 11:46:36;;;;;;;;;;;24.40;99.90;;;;;;4939794;28;20849;-78
2021/07/30 11:49:03;;;;;;;5.80;3.20;;;24.60;99.90;;;;;;4931360;28;24931;-75
2021/07/30 11:51:29;;;;;;;3.47;3.17;;;24.70;99.90;;;;;;4939421;28;20629;-72
2021/07/30 11:53:56;;;;;;;4.83;3.30;;;24.90;99.90;;;;;;4940349;28;21249;-73
2021/07/30 11:56:23;;;;;;;3.93;3.43;;;24.90;99.90;;;;;;4940158;29;20639;-72
2021/07/30 11:59:01;;;;;;;3.97;3.33;;;25.00;99.90;;;;;;4934980;28;20631;-73
2021/07/30 12:01:31;;;;;;;3.87;3.07;;;25.10;99.90;;;;;;4942311;29;20684;-75
2021/07/30 12:04:10;;;;;;;5.57;2.87;;;25.20;99.90;;;;;;4934903;28;20675;-76
2021/07/30 12:06:47;;;;;;;3.60;3.30;;;25.20;99.90;;;;;;4939732;28;21132;-74
2021/07/30 12:09:15;;;;;;;4.13;3.27;;;25.30;99.90;;;;;;4939918;28;20615;-74
2021/07/30 12:11:55;;;;;;;4.00;3.27;;;25.60;99.90;;;;;;4941437;28;20637;-74
2021/07/30 12:14:24;;;;;;;5.30;3.43;;;25.60;99.90;;;;;;4939285;28;20646;-75
2021/07/30 12:16:50;;;;;;;3.53;3.23;;;25.70;99.90;;;;;;4943478;29;20619;-75
2021/07/30 12:19:33;;;;;;;4.50;3.10;;;25.80;99.90;;;;;;4938459;28;20655;-77
2021/07/30 12:22:00;;;;;;;3.60;3.13;;;25.80;99.90;;;;;;4941100;28;20706;-78
2021/07/30 12:24:26;;;;;;;4.23;3.23;;;25.80;99.90;;;;;;4931321;28;20663;-79
2021/07/30 12:26:53;;;;;;;3.40;3.00;;;25.90;99.90;;;;;;4929199;28;20657;-78
2021/07/30 12:29:43;;;;;;;5.10;3.03;;;25.80;99.90;;;;;;4930615;28;22015;-75
2021/07/30 12:32:20;;;;;;;4.37;2.80;;;25.70;99.90;;;;;;4940575;28;20623;-76
2021/07/30 12:34:59;;;;;;;4.40;3.20;;;25.90;99.90;;;;;;4926705;28;20614;-76
2021/07/30 12:37:27;;;;;;;3.53;2.93;;;26.00;99.90;;;;;;4937550;28;20766;-79
2021/07/30 12:39:54;;;;;;;3.57;2.70;;;26.10;99.90;;;;;;4948885;28;20651;-79
2021/07/30 12:42:28;;;;;;;3.47;3.03;;;26.20;99.90;;;;;;4932420;28;20696;-78
2021/07/30 12:45:06;;;;;;;3.27;2.97;;;26.30;99.90;;;;;;4942782;28;20682;-74
2021/07/30 12:47:34;;;;;;;3.27;2.87;;;26.40;99.90;;;;;;4940598;28;20634;-75
2021/07/30 12:50:20;;;;;;;3.63;3.00;;;26.50;99.90;;;;;;4938474;28;20650;-74
2021/07/30 12:53:02;;;;;;;4.40;3.80;;;26.50;99.90;;;;;;4931919;28;20666;-72
2021/07/30 12:55:27;;;;;;;5.50;3.33;;;26.70;99.90;;;;;;4924842;28;20998;-74
2021/07/30 12:57:53;;;;;;;3.30;2.90;;;26.80;99.90;;;;;;4928974;28;20623;-74
2021/07/30 13:00:30;;;;;;;3.70;3.27;;;27.00;99.90;;;;;;4936381;28;21432;-75
2021/07/30 13:02:56;;;;;;;4.60;2.93;;;27.20;99.90;;;;;;4938072;28;20223;-75
2021/07/30 13:05:25;;;;;;;3.63;2.70;;;27.30;99.90;;;;;;4941058;28;20663;-75
2021/07/30 13:07:51;;;;;;;3.73;3.10;;;27.40;99.90;;;;;;4939264;29;20188;-75
2021/07/30 13:10:18;;;;;;;3.47;3.17;;;27.40;99.90;;;;;;4938415;28;21229;-75
2021/07/30 13:12:43;;;;;;;3.53;3.23;;;27.50;99.90;;;;;;4944154;28;20816;-74
2021/07/30 13:15:11;;;;;;;5.80;3.20;;;27.60;99.90;;;;;;4938174;28;20683;-77
2021/07/30 13:17:36;;;;;;;3.13;2.83;;;27.80;99.90;;;;;;4938601;28;20199;-78
2021/07/30 13:20:03;;;;;;;3.07;2.77;;;27.80;99.90;;;;;;4935902;28;20642;-75
2021/07/30 13:22:29;;;;;;;4.90;3.00;;;27.80;99.50;;;;;;4940143;28;20243;-76
2021/07/30 13:24:55;;;;;;;2.50;2.30;;;27.80;98.50;;;;;;4932279;28;20752;-78
2021/07/30 13:27:20;;;;;;;4.83;3.20;;;28.10;99.20;;;;;;4934282;28;20191;-77
2021/07/30 13:29:46;;;;;;;2.80;2.60;;;28.20;98.00;;;;;;4939788;28;20824;-78
2021/07/30 13:32:11;;;;;;;3.67;3.20;;;28.20;97.40;;;;;;4947516;28;20210;-78
2021/07/30 13:34:37;;;;;;;3.57;3.10;;;28.30;97.80;;;;;;4941870;28;20679;-78
2021/07/30 13:37:02;;;;;;;3.60;2.70;;;28.50;98.30;;;;;;4944324;28;20234;-78
2021/07/30 13:39:28;;;;;;;3.70;3.13;;;28.70;96.20;;;;;;4945636;28;20219;-76
2021/07/30 13:41:54;;;;;;;2.80;2.60;;;28.70;95.30;;;;;;4943447;28;20274;-77
2021/07/30 13:44:22;;;;;;;4.23;3.07;;;28.80;94.90;;;;;;4942276;28;20211;-76
2021/07/30 13:46:48;;;;;;;3.47;2.87;;;28.70;95.30;;;;;;4948983;28;20694;-76
2021/07/30 13:49:13;;;;;;;3.80;3.03;;;28.60;94.10;;;;;;4938730;28;20629;-76
2021/07/30 13:51:39;;;;;;;3.40;3.10;;;28.70;93.30;;;;;;4945578;28;20195;-75
2021/07/30 13:54:04;;;;;;;4.07;3.00;;;28.80;93.70;;;;;;4945624;28;20218;-76
2021/07/30 13:56:30;;;;;;;3.10;2.80;;;28.80;94.00;;;;;;4949872;28;20199;-74
2021/07/30 13:58:56;;;;;;;3.57;2.90;;;29.00;93.30;;;;;;4943521;28;20212;-75
2021/07/30 14:01:22;;;;;;;3.17;2.87;;;29.10;93.40;;;;;;4943729;28;20223;-78
2021/07/30 14:03:48;;;;;;;2.60;2.40;;;29.00;92.00;;;;;;4935032;28;21359;-75
2021/07/30 14:06:14;;;;;;;3.40;2.40;;;29.10;92.00;;;;;;4935898;28;20199;-77
2021/07/30 14:08:39;;;;;;;3.60;2.97;;;29.40;93.60;;;;;;4934848;28;20634;-76
2021/07/30 14:11:05;;;;;;;2.90;2.60;;;29.40;92.00;;;;;;4931885;28;20729;-75
2021/07/30 14:13:30;;;;;;;3.97;2.90;;;29.50;92.00;;;;;;4941394;28;20215;-76
2021/07/30 14:15:56;;;;;;;3.10;2.80;;;29.40;92.20;;;;;;4936313;28;20608;-76
2021/07/30 14:18:21;;;;;;;3.17;2.83;;;29.50;92.00;;;;;;4938469;28;20203;-76
2021/07/30 14:20:47;;;;;;;2.90;2.70;;;29.70;92.10;;;;;;4940770;28;20383;-77
2021/07/30 14:23:13;;;;;;;4.33;2.73;;;29.80;91.10;;;;;;4942194;28;20215;-76
2021/07/30 14:25:39;;;;;;;3.00;2.70;;;29.90;91.50;;;;;;4940691;28;20238;-78
2021/07/30 14:28:05;;;;;;;3.70;3.27;;;30.10;90.50;;;;;;4938574;28;21210;-75
2021/07/30 14:30:32;;;;;;;3.67;3.37;;;30.10;89.70;;;;;;4931780;28;20538;-74
2021/07/30 14:32:57;;;;;;;3.60;3.20;;;30.20;91.40;;;;;;4955540;28;20274;-73
2021/07/30 14:35:23;;;;;;;5.50;2.87;;;30.30;90.10;;;;;;4938746;28;20627;-73
2021/07/30 14:37:48;;;;;;;3.50;3.20;;;30.50;90.60;;;;;;4935902;28;20203;-74
2021/07/30 14:40:14;;;;;;;3.63;2.83;;;30.50;90.00;;;;;;4941491;28;20352;-77
2021/07/30 14:42:40;;;;;;;3.20;2.90;;;30.90;88.40;;;;;;4943583;28;20278;-78
2021/07/30 14:45:06;;;;;;;3.17;2.97;;;31.20;88.90;;;;;;4942145;29;20234;-77
2021/07/30 14:47:35;;;;;;;4.40;3.03;;;31.10;88.50;;;;;;4940181;28;20191;-78
2021/07/30 14:50:00;;;;;;;2.97;2.77;;;30.90;85.40;;;;;;4938538;28;20643;-77
2021/07/30 14:52:26;;;;;;;4.50;3.03;;;31.10;87.30;;;;;;4938870;28;21186;-77
2021/07/30 14:54:51;;;;;;;3.33;3.03;;;31.00;84.90;;;;;;4944368;28;20203;-77
2021/07/30 14:57:17;;;;;;;3.70;3.00;;;31.10;87.60;;;;;;4935700;28;20203;-78
2021/07/30 14:59:44;;;;;;;3.07;2.80;;;31.30;85.50;;;;;;4938067;28;20318;-79
2021/07/30 15:02:10;;;;;;;5.47;3.20;;;31.50;86.00;;;;;;4939846;28;20196;-78
2021/07/30 15:04:35;;;;;;;3.70;3.40;;;31.50;85.30;;;;;;4933141;28;21401;-78
2021/07/30 15:07:01;;;;;;;6.47;3.20;;;31.60;85.10;;;;;;4938590;28;20702;-78
2021/07/30 15:09:27;;;;;;;5.10;3.20;;;30.80;83.60;;;;;;4936090;28;20239;-79
2021/07/30 15:11:55;;;;;;;3.40;3.07;;;30.50;84.60;;;;;;4939020;28;20188;-78
2021/07/30 15:14:20;;;;;;;3.20;3.00;;;30.10;86.40;;;;;;4943941;28;20219;-79
2021/07/30 15:16:47;;;;;;;3.43;2.80;;;29.80;88.10;;;;;;4944777;28;20626;-79
2021/07/30 15:19:14;;;;;;;4.63;3.93;;;29.60;86.30;;;;;;4935495;28;20664;-79
2021/07/30 15:21:41;;;;;;;8.70;3.30;;;29.40;88.60;;;;;;4934979;28;20619;-79
2021/07/30 15:24:07;;;;;;;3.80;3.10;;;29.20;89.80;;;;;;4928646;28;20765;-78
2021/07/30 15:26:33;;;;;;;3.93;3.40;;;29.00;89.10;;;;;;4940276;29;20945;-79
2021/07/30 15:29:04;;;;;;;3.70;3.40;;;28.80;90.10;;;;;;4944411;28;20646;-81
2021/07/30 15:31:30;;;;;;;3.70;3.40;;;28.40;89.00;;;;;;4930179;28;20634;-79
2021/07/30 15:33:56;;;;;;;4.20;3.80;;;28.10;91.00;;;;;;4926765;28;20856;-78
2021/07/30 15:36:22;;;;;;;4.20;3.80;;;27.90;91.10;;;;;;4934325;28;20750;-80
2021/07/30 15:38:49;;;;;;;3.90;3.60;;;27.80;91.60;;;;;;4940262;28;20623;-79
2021/07/30 15:41:17;;;;;;;3.93;3.43;;;27.70;92.50;;;;;;4942484;28;20235;-79
2021/07/30 15:43:43;;;;;;;4.37;3.97;;;27.60;92.90;;;;;;4946707;28;20666;-80
2021/07/30 15:46:09;;;;;;;3.83;3.53;;;27.60;93.70;;;;;;4933055;28;20625;-78
2021/07/30 15:48:36;;;;;;;4.60;3.50;;;27.50;94.50;;;;;;4932538;28;20615;-79
2021/07/30 15:51:02;;;;;;;5.20;4.80;;;27.30;94.80;;;;;;4932459;28;20230;-79
2021/07/30 15:53:28;;;;;;;6.33;4.03;;;27.20;95.70;;;;;;4935808;28;20647;-79
2021/07/30 15:55:53;;;;;;;6.93;3.37;;;27.20;96.40;;;;;;4944867;28;20271;-79
2021/07/30 15:58:19;;;;;;;3.87;3.57;;;27.30;96.60;;;;;;4939409;28;20222;-78
2021/07/30 16:00:44;;;;;;;4.03;3.73;;;27.40;96.20;;;;;;4932623;28;20297;-79
2021/07/30 16:03:10;;;;;;;3.73;3.40;;;27.50;96.60;;;;;;4933158;28;20940;-78
2021/07/30 16:05:36;;;;;;;4.23;3.83;;;27.90;96.20;;;;;;4935698;28;20219;-78
2021/07/30 16:08:02;;;;;;;5.93;4.17;;;27.60;95.10;;;;;;4942491;29;20655;-79
2021/07/30 16:10:27;;;;;;;4.40;4.10;;;27.60;96.00;;;;;;4939600;28;20639;-78
2021/07/30 16:12:54;;;;;;;4.20;3.80;;;27.70;96.10;;;;;;4940499;28;21209;-78
2021/07/30 16:15:23;;;;;;;5.30;4.30;;;27.80;96.40;;;;;;4930849;28;20219;-79
2021/07/30 16:17:49;;;;;;;3.93;3.30;;;27.80;95.40;;;;;;4935522;28;20726;-78
2021/07/30 16:20:14;;;;;;;4.67;4.10;;;27.70;95.50;;;;;;4929699;28;20651;-78
2021/07/30 16:22:41;;;;;;;4.23;3.83;;;27.70;95.80;;;;;;4935735;28;20218;-78
2021/07/30 16:25:08;;;;;;;4.17;3.80;;;27.80;95.70;;;;;;4923095;28;20286;-79
2021/07/30 16:27:34;;;;;;;4.10;3.80;;;27.70;95.60;;;;;;4939059;28;21174;-77
2021/07/30 16:29:59;;;;;;;5.70;4.10;;;27.60;95.80;;;;;;4930036;28;20737;-79
2021/07/30 16:32:25;;;;;;;4.50;4.10;;;27.60;96.00;;;;;;4932961;28;20191;-77
2021/07/30 16:34:50;;;;;;;4.17;3.63;;;27.60;95.70;;;;;;4942313;28;20202;-78
2021/07/30 16:37:19;;;;;;;6.40;3.57;;;27.40;96.10;;;;;;4937255;28;20198;-77
2021/07/30 16:39:44;;;;;;;5.17;3.93;;;27.30;97.00;;;;;;4943426;28;20718;-77
2021/07/30 16:42:10;;;;;;;4.90;4.50;;;27.20;96.80;;;;;;4938795;28;20755;-77
2021/07/30 16:44:36;;;;;;;4.47;4.10;;;27.10;96.50;;;;;;4944553;29;20293;-77
2021/07/30 16:47:02;;;;;;;4.23;3.93;;;27.20;97.50;;;;;;4940201;28;20188;-76
2021/07/30 16:49:28;;;;;;;4.03;3.73;;;27.20;97.20;;;;;;4932783;28;20642;-72
2021/07/30 16:51:57;;;;;;;4.60;3.80;;;27.20;97.00;;;;;;4935772;28;20615;-74
2021/07/30 16:54:23;;;;;;;6.53;4.03;;;27.20;97.80;;;;;;4945276;28;20215;-79
2021/07/30 16:56:49;;;;;;;3.83;3.53;;;27.40;97.80;;;;;;4940822;28;21041;-79
2021/07/30 16:59:16;;;;;;;3.90;3.60;;;27.20;97.30;;;;;;4932856;28;20618;-80
2021/07/30 17:01:43;;;;;;;5.57;4.00;;;27.10;97.30;;;;;;4935996;28;20635;-83
2021/07/30 17:04:08;;;;;;;4.90;4.30;;;27.10;97.80;;;;;;4944693;28;20654;-82
2021/07/30 17:06:36;;;;;;;6.60;3.63;;;27.00;98.10;;;;;;4949375;29;20966;-79
2021/07/30 17:09:02;;;;;;;3.80;3.33;;;27.00;98.30;;;;;;4938904;28;20270;-81
2021/07/30 17:11:28;;;;;;;4.30;3.90;;;27.10;97.80;;;;;;4941072;28;20710;-78
2021/07/30 17:13:54;;;;;;;3.93;3.57;;;27.20;97.90;;;;;;4947072;28;20750;-78
2021/07/30 17:16:20;;;;;;;4.07;3.77;;;27.40;98.00;;;;;;4940187;28;20631;-78
2021/07/30 17:18:47;;;;;;;4.97;4.40;;;27.40;98.30;;;;;;4946604;28;21486;-81
2021/07/30 17:21:13;;;;;;;3.87;3.57;;;27.40;98.40;;;;;;4944812;28;20249;-78
2021/07/30 17:23:39;;;;;;;4.50;4.10;;;27.20;98.00;;;;;;4942006;28;20672;-79
2021/07/30 17:26:05;;;;;;;4.50;4.10;;;27.10;97.60;;;;;;4946982;28;21238;-82
2021/07/30 17:28:31;;;;;;;7.67;4.50;;;27.00;98.30;;;;;;4936931;28;20596;-82
2021/07/30 17:31:00;;;;;;;5.57;4.90;;;27.00;99.10;;;;;;4941306;28;20238;-79
2021/07/30 17:33:26;;;;;;;6.30;5.20;;;26.70;98.70;;;;;;4942901;28;20657;-79
2021/07/30 17:35:51;;;;;;;7.40;5.20;;;26.60;99.40;;;;;;4935174;28;20654;-79
2021/07/30 17:38:17;;;;;;;6.93;6.20;;;26.50;99.90;;;;;;4938529;28;20690;-79
2021/07/30 17:40:45;;;;;;;6.43;5.30;;;26.60;99.90;;;;;;4942704;28;20695;-79
2021/07/30 17:43:11;;;;;;;5.70;5.10;;;26.20;99.90;;;;;;4947003;28;20257;-80
2021/07/30 17:45:37;;;;;;;5.90;5.30;;;26.10;99.90;;;;;;4942254;28;20754;-78
2021/07/30 17:48:03;;;;;;;6.73;4.73;;;26.10;99.90;;;;;;4944987;28;20188;-79
2021/07/30 17:50:28;;;;;;;5.73;4.17;;;26.00;99.90;;;;;;4940779;28;20647;-79
2021/07/30 17:52:54;;;;;;;4.97;4.57;;;26.00;99.90;;;;;;4934701;28;21112;-79
2021/07/30 17:55:19;;;;;;;4.63;4.23;;;26.00;99.90;;;;;;4932081;28;20734;-79
2021/07/30 17:57:45;;;;;;;5.20;4.20;;;25.90;99.90;;;;;;4938939;28;20282;-76
2021/07/30 18:00:11;;;;;;;5.23;4.73;;;25.80;99.90;;;;;;4940720;28;20277;-76
2021/07/30 18:02:37;;;;;;;4.73;4.30;;;25.80;99.90;;;;;;4933720;28;20261;-77
2021/07/30 18:05:04;;;;;;;5.73;4.60;;;25.80;99.90;;;;;;4936378;28;21038;-78
2021/07/30 18:07:30;;;;;;;4.50;4.10;;;25.70;99.90;;;;;;4939819;28;20192;-80
2021/07/30 18:09:55;;;;;;;4.30;3.90;;;25.60;99.90;;;;;;4952263;28;20638;-78
2021/07/30 18:12:21;;;;;;;4.27;3.70;;;25.80;99.90;;;;;;4941508;28;20274;-75
2021/07/30 18:14:46;;;;;;;4.70;4.30;;;25.50;99.90;;;;;;4936590;28;20259;-77
2021/07/30 18:17:13;;;;;;;5.03;4.30;;;25.40;99.90;;;;;;4938620;28;20199;-77
2021/07/30 18:19:39;;;;;;;4.90;4.50;;;25.40;99.90;;;;;;4936226;28;20235;-77
2021/07/30 18:22:05;;;;;;;4.53;4.10;;;25.60;99.90;;;;;;4927492;28;20650;-76
2021/07/30 18:24:30;;;;;;;4.57;4.17;;;25.30;99.90;;;;;;4943641;28;20678;-77
2021/07/30 18:26:56;;;;;;;5.47;3.97;;;25.20;99.90;;;;;;4945778;28;20199;-78
2021/07/30 18:29:22;;;;;;;6.20;4.27;;;25.20;99.90;;;;;;4939257;28;20235;-77
2021/07/30 18:31:49;;;;;;;4.20;3.90;;;25.10;99.90;;;;;;4933038;29;20327;-79
2021/07/30 18:34:17;;;;;;;5.20;4.13;;;25.20;99.90;;;;;;4937417;28;20742;-80
2021/07/30 18:36:43;;;;;;;4.27;3.90;;;24.90;99.90;;;;;;4934519;29;20654;-78
2021/07/30 18:39:08;;;;;;;4.73;4.33;;;24.80;99.90;;;;;;4935674;28;20722;-77
2021/07/30 18:41:34;;;;;;;7.37;4.57;;;24.70;99.90;;;;;;4932729;29;20199;-79
2021/07/30 18:44:00;;;;;;;4.30;3.93;;;24.60;99.90;;;;;;4930784;28;20402;-78
2021/07/30 18:46:25;;;;;;;4.90;4.50;;;24.50;99.90;;;;;;4933858;28;20314;-78
2021/07/30 18:48:51;;;;;;;4.60;4.20;;;24.50;99.90;;;;;;4931319;28;20335;-79
2021/07/30 18:51:17;;;;;;;5.07;4.67;;;24.40;99.90;;;;;;4930648;28;20220;-78
2021/07/30 18:53:46;;;;;;;4.50;4.10;;;24.30;99.90;;;;;;4939432;28;20913;-78
2021/07/30 18:56:15;;;;;;;5.17;4.67;;;24.30;99.90;;;;;;4941778;28;21181;-78
2021/07/30 18:58:40;;;;;;;5.33;4.07;;;24.00;99.90;;;;;;4949322;28;20634;-76
2021/07/30 19:01:06;;;;;;;5.67;4.07;;;24.10;99.90;;;;;;4928515;28;20651;-78
2021/07/30 19:03:32;;;;;;;6.60;4.70;;;24.30;99.90;;;;;;4933117;28;20227;-76
2021/07/30 19:05:57;;;;;;;4.57;4.17;;;24.00;99.90;;;;;;4922086;28;20318;-77
2021/07/30 19:08:23;;;;;;;4.40;4.10;;;23.90;99.90;;;;;;4930131;28;20191;-77
2021/07/30 19:10:49;;;;;;;4.67;4.27;;;23.90;99.90;;;;;;4928474;28;21469;-75
2021/07/30 19:13:14;;;;;;;4.97;4.43;;;23.80;99.90;;;;;;4928991;28;20374;-76
2021/07/30 19:15:40;;;;;;;7.17;6.57;;;24.00;99.90;;;;;;4933814;28;20200;-77
2021/07/30 19:18:06;;;;;;;6.60;6.00;;;23.70;99.90;;;;;;4929759;28;20254;-78
2021/07/30 19:20:34;;;;;;;7.40;6.70;;;23.60;99.90;;;;;;4928242;28;20433;-75
2021/07/30 19:22:59;;;;;;;8.53;7.83;;;23.60;99.90;;;;;;4932137;28;20786;-78
2021/07/30 19:25:25;;;;;;;9.50;8.53;;;23.50;99.90;;;;;;4933393;28;20678;-78
2021/07/30 19:27:51;;;;;;;8.67;7.77;;;23.40;99.90;;;;;;4936885;28;20195;-78
2021/07/30 19:30:16;;;;;;;7.13;6.53;;;23.40;99.90;;;;;;4937309;28;20262;-77
2021/07/30 19:32:44;;;;;;;6.27;5.77;;;23.40;99.90;;;;;;4935533;28;20221;-77
2021/07/30 19:35:11;;;;;;;6.00;5.53;;;23.30;99.90;;;;;;4933837;28;20199;-77
2021/07/30 19:37:40;;;;;;;8.00;5.80;;;23.00;99.90;;;;;;4938941;28;20686;-77
2021/07/30 19:40:07;;;;;;;7.90;5.33;;;23.30;99.90;;;;;;4937758;28;21014;-76
2021/07/30 19:42:33;;;;;;;6.23;5.63;;;23.20;99.90;;;;;;4943188;28;21233;-75
2021/07/30 19:45:00;;;;;;;6.23;5.30;;;23.20;99.90;;;;;;4940680;28;20693;-75
2021/07/30 19:47:28;;;;;;;6.73;6.10;;;23.20;99.90;;;;;;4938226;28;20622;-78
2021/07/30 19:49:56;;;;;;;6.37;5.83;;;22.90;99.90;;;;;;4936178;28;20722;-74
2021/07/30 19:52:22;;;;;;;6.00;5.40;;;23.10;99.90;;;;;;4939812;28;20623;-77
2021/07/30 19:54:50;;;;;;;6.07;5.57;;;23.00;99.90;;;;;;4937317;28;21163;-77
2021/07/30 19:57:16;;;;;;;6.00;5.40;;;23.00;99.90;;;;;;4926022;28;20921;-77
2021/07/30 19:59:44;;;;;;;7.30;6.70;;;23.00;99.90;;;;;;4937720;28;20657;-78
2021/07/30 20:02:22;;;;;;;7.47;6.80;;;23.00;99.90;;;;;;4945742;28;20214;-78
2021/07/30 20:04:47;;;;;;;9.20;7.87;;;23.00;99.90;;;;;;4944810;28;20716;-78
2021/07/30 20:07:18;;;;;;;10.30;9.20;;;23.00;99.90;;;;;;4950961;28;20759;-78
2021/07/30 20:09:51;;;;;;;9.40;8.50;;;22.90;99.90;;;;;;4939151;28;20215;-78
2021/07/30 20:12:25;;;;;;;8.27;7.57;;;22.90;99.90;;;;;;4940394;28;20626;-78
2021/07/30 20:14:58;;;;;;;8.53;7.73;;;22.90;99.90;;;;;;4946487;29;21014;-78
2021/07/30 20:17:23;;;;;;;8.40;7.70;;;22.90;99.90;;;;;;4945771;28;21492;-78
2021/07/30 20:19:54;;;;;;;9.30;8.40;;;22.90;99.90;;;;;;4939618;28;22709;-78
2021/07/30 20:22:20;;;;;;;7.17;6.47;;;22.80;99.90;;;;;;4945652;28;20187;-77
2021/07/30 20:24:54;;;;;;;8.93;7.40;;;22.80;99.90;;;;;;4941859;29;20661;-77
2021/07/30 20:27:21;;;;;;;7.20;6.70;;;22.80;99.90;;;;;;4940282;28;20634;-78
2021/07/30 20:29:54;;;;;;;6.67;6.07;;;22.80;99.90;;;;;;4946141;28;20650;-78
2021/07/30 20:32:22;;;;;;;7.00;6.13;;;22.90;99.90;;;;;;4944372;28;20619;-77
2021/07/30 20:34:50;;;;;;;7.43;6.73;;;22.90;99.90;;;;;;4942966;29;20750;-76
2021/07/30 20:37:15;;;;;;;6.63;6.00;;;22.80;99.90;;;;;;4936491;29;20657;-76
2021/07/30 20:39:43;;;;;;;6.03;5.23;;;22.80;99.90;;;;;;4941924;28;21210;-76
2021/07/30 20:42:11;;;;;;;6.03;5.43;;;22.80;99.90;;;;;;4933967;29;20250;-76
2021/07/30 20:44:36;;;;;;;6.60;5.13;;;22.80;99.90;;;;;;4935888;29;20702;-76
2021/07/30 20:47:02;;;;;;;5.70;5.13;;;22.70;99.90;;;;;;4938462;28;20735;-77
2021/07/30 20:49:30;;;;;;;6.37;5.73;;;22.70;99.90;;;;;;4938886;28;20227;-78
2021/07/30 20:52:02;;;;;;;5.73;5.23;;;23.00;99.90;;;;;;4945818;28;20190;-78
2021/07/30 20:54:27;;;;;;;6.17;5.53;;;22.70;99.90;;;;;;4943367;28;20651;-79
2021/07/30 20:56:58;;;;;;;12.13;5.90;;;23.00;99.90;;;;;;4943335;29;20701;-78
2021/07/30 20:59:23;;;;;;;6.17;5.57;;;22.80;99.90;;;;;;4930549;28;21357;-76
2021/07/30 21:01:49;;;;;;;5.40;4.90;;;23.00;99.90;;;;;;4938199;29;20988;-77
2021/07/30 21:04:15;;;;;;;6.23;5.67;;;22.70;99.90;;;;;;4937818;28;20211;-77
2021/07/30 21:06:44;;;;;;;6.80;6.10;;;22.80;99.90;;;;;;4933102;28;20230;-77
2021/07/30 21:09:15;;;;;;;8.13;7.40;;;22.80;99.90;;;;;;4933984;28;21958;-77
2021/07/30 21:11:45;;;;;;;9.70;7.93;;;22.70;99.90;;;;;;4943005;28;20718;-76
2021/07/30 21:14:11;;;;;;;8.00;7.37;;;22.70;99.90;;;;;;4945505;28;20666;-76
2021/07/30 21:16:39;;;;;;;8.57;7.87;;;22.60;99.90;;;;;;4937878;29;20631;-76
2021/07/30 21:19:04;;;;;;;7.50;6.90;;;22.60;99.90;;;;;;4939497;28;20199;-76
2021/07/30 21:21:31;;;;;;;9.03;7.70;;;22.50;99.90;;;;;;4943370;28;20618;-76
2021/07/30 21:23:59;;;;;;;8.67;7.87;;;22.40;99.90;;;;;;4939883;28;20582;-76
2021/07/30 21:26:25;;;;;;;7.93;7.23;;;22.40;99.90;;;;;;4939117;28;21260;-76
2021/07/30 21:28:56;;;;;;;6.70;6.20;;;22.40;99.90;;;;;;4946021;28;20623;-76
2021/07/30 21:31:21;;;;;;;7.40;6.80;;;22.20;99.90;;;;;;4945151;28;20421;-76
2021/07/30 21:33:47;;;;;;;6.80;6.17;;;22.20;99.90;;;;;;4938197;28;20642;-76
2021/07/30 21:36:12;;;;;;;9.50;6.20;;;22.10;99.90;;;;;;4942898;29;20188;-76
2021/07/30 21:38:38;;;;;;;6.93;6.33;;;22.10;99.90;;;;;;4939952;29;20210;-76
2021/07/30 21:41:06;;;;;;;7.17;6.43;;;22.00;99.90;;;;;;4935283;28;20477;-76
2021/07/30 21:43:32;;;;;;;6.70;6.20;;;21.90;99.90;;;;;;4944078;28;20939;-76
2021/07/30 21:45:57;;;;;;;6.77;6.17;;;21.80;99.90;;;;;;4940930;29;20669;-76
2021/07/30 21:48:23;;;;;;;7.00;6.30;;;21.80;99.90;;;;;;4943349;28;20215;-76
2021/07/30 21:50:51;;;;;;;6.97;6.37;;;21.80;99.90;;;;;;4942461;28;20227;-76
2021/07/30 21:53:19;;;;;;;7.83;7.07;;;21.80;99.90;;;;;;4943834;28;20382;-76
2021/07/30 21:55:45;;;;;;;6.90;6.30;;;21.80;99.90;;;;;;4955536;28;20626;-76
2021/07/30 21:58:10;;;;;;;6.23;5.83;;;21.80;99.90;;;;;;4939690;28;20630;-76
2021/07/30 22:00:40;;;;;;;7.63;7.03;;;21.80;99.90;;;;;;4937625;28;20231;-76
2021/07/30 22:03:06;;;;;;;6.80;6.00;;;21.70;99.90;;;;;;4939074;28;20222;-76
2021/07/30 22:05:34;;;;;;;7.27;6.40;;;21.70;99.90;;;;;;4937008;28;20643;-75
2021/07/30 22:08:02;;;;;;;6.80;6.30;;;21.70;99.90;;;;;;4936600;28;20791;-76
2021/07/30 22:10:28;;;;;;;6.60;6.03;;;21.60;99.90;;;;;;4933491;28;20643;-77
2021/07/30 22:12:56;;;;;;;6.90;6.40;;;21.50;99.90;;;;;;4940227;28;21197;-76
2021/07/30 22:15:22;;;;;;;7.90;7.07;;;21.50;99.90;;;;;;4942232;28;20298;-76
2021/07/30 22:17:55;;;;;;;6.93;6.33;;;21.50;99.90;;;;;;4935389;28;21259;-76
2021/07/30 22:20:21;;;;;;;6.10;5.60;;;21.50;99.90;;;;;;4935548;28;21248;-76
2021/07/30 22:22:50;;;;;;;7.03;6.43;;;21.50;99.90;;;;;;4941289;28;20674;-76
2021/07/30 22:25:15;;;;;;;7.33;6.73;;;21.50;99.90;;;;;;4941054;28;20242;-76
2021/07/30 22:27:41;;;;;;;6.57;6.07;;;21.50;99.90;;;;;;4938416;28;21009;-76
2021/07/30 22:30:11;;;;;;;6.73;6.13;;;21.50;99.90;;;;;;4954419;28;20630;-76
2021/07/30 22:32:45;;;;;;;8.23;6.73;;;21.50;99.90;;;;;;4938794;28;21302;-77
2021/07/30 22:35:11;;;;;;;7.67;7.13;;;21.40;99.90;;;;;;4932043;28;20630;-76
2021/07/30 22:37:40;;;;;;;9.97;7.30;;;21.50;99.90;;;;;;4936992;28;20630;-76
2021/07/30 22:40:11;;;;;;;8.63;6.87;;;21.50;99.90;;;;;;4940251;28;21273;-76
2021/07/30 22:42:44;;;;;;;7.07;6.37;;;21.50;99.90;;;;;;4937982;28;20635;-75
2021/07/30 22:45:12;;;;;;;7.40;6.80;;;21.40;99.90;;;;;;4934582;28;20647;-75
2021/07/30 22:47:38;;;;;;;7.20;6.50;;;21.30;99.90;;;;;;4939833;28;20658;-75
2021/07/30 22:50:10;;;;;;;7.63;7.03;;;21.10;99.90;;;;;;4939700;28;20777;-76
2021/07/30 22:52:39;;;;;;;7.40;6.77;;;21.00;99.90;;;;;;4943588;28;20307;-78
2021/07/30 22:55:11;;;;;;;6.80;6.30;;;20.80;99.90;;;;;;4941078;29;20697;-78
2021/07/30 22:57:37;;;;;;;6.93;6.43;;;20.80;99.90;;;;;;4945393;28;20618;-77
2021/07/30 23:00:07;;;;;;;7.10;6.43;;;20.60;99.90;;;;;;4940244;28;20646;-78
2021/07/30 23:02:43;;;;;;;7.40;6.70;;;20.70;99.90;;;;;;4939335;28;20306;-78
2021/07/30 23:05:12;;;;;;;7.30;6.70;;;20.60;99.90;;;;;;4942939;28;21290;-78
2021/07/30 23:07:42;;;;;;;6.70;6.20;;;20.60;99.90;;;;;;4944966;29;21245;-78
2021/07/30 23:10:15;;;;;;;7.40;6.80;;;20.60;99.90;;;;;;4932562;28;20631;-78